Time;durP1;ratioP1;P1;durP2;ratioP2;P2;SDS_P1;SDS_P2;PMS_P1;PMS_P2;Temp;Humidity;BMP_temperature;BMP_pressure;BME280_temperature;BME280_humidity;BME280_pressure;Samples;Min_cycle;Max_cycle;Signal;HPM_P1;HPM_P2
2021/05/01 00:02:04;;;;;;;16.47;11.20;;;;;;;2.95;90.56;100979.09;5092974;28;20236;-70
2021/05/01 00:04:32;;;;;;;18.23;11.13;;;;;;;3.09;90.13;100970.94;5093728;28;20227;-71
2021/05/01 00:06:57;;;;;;;18.00;11.27;;;;;;;3.24;89.81;100977.66;5092962;28;20198;-70
2021/05/01 00:09:22;;;;;;;20.27;11.47;;;;;;;3.31;89.13;100968.72;5094360;28;20201;-71
2021/05/01 00:11:47;;;;;;;12.70;10.00;;;;;;;3.30;88.72;100972.25;5094947;28;20203;-71
2021/05/01 00:14:13;;;;;;;17.90;10.97;;;;;;;3.40;88.25;100969.41;5094890;28;20173;-71
2021/05/01 00:16:38;;;;;;;18.00;12.30;;;;;;;3.29;89.80;100965.25;5094474;28;20660;-70
2021/05/01 00:19:03;;;;;;;21.87;11.50;;;;;;;3.29;89.52;100971.38;5094059;28;20190;-71
2021/05/01 00:21:29;;;;;;;14.70;10.97;;;;;;;3.17;87.95;100957.59;5094406;28;20174;-71
2021/05/01 00:23:54;;;;;;;12.13;10.13;;;;;;;3.22;89.71;100948.69;5094241;28;20599;-72
2021/05/01 00:26:20;;;;;;;17.57;11.83;;;;;;;3.13;88.86;100935.69;5094779;28;20227;-70
2021/05/01 00:28:45;;;;;;;17.07;11.97;;;;;;;2.90;89.44;100924.72;5094801;28;20193;-71
2021/05/01 00:31:11;;;;;;;17.37;11.63;;;;;;;2.82;89.47;100924.88;5076824;28;20209;-71
2021/05/01 00:33:38;;;;;;;21.83;13.33;;;;;;;2.75;90.48;100925.91;5095355;28;20170;-71
2021/05/01 00:36:03;;;;;;;24.83;14.17;;;;;;;2.70;92.17;100918.09;5095136;28;20169;-70
2021/05/01 00:38:29;;;;;;;24.77;14.27;;;;;;;2.87;92.18;100928.28;5094411;28;20201;-70
2021/05/01 00:40:54;;;;;;;27.73;15.07;;;;;;;2.69;92.30;100936.56;5091753;28;20185;-70
2021/05/01 00:43:19;;;;;;;27.23;15.43;;;;;;;2.67;93.06;100933.97;5091767;28;20190;-70
2021/05/01 00:45:45;;;;;;;23.93;14.77;;;;;;;2.61;92.73;100930.59;5091500;28;20171;-71
2021/05/01 00:48:10;;;;;;;26.63;15.63;;;;;;;2.60;93.09;100926.19;5091305;28;20213;-70
2021/05/01 00:50:35;;;;;;;22.90;15.33;;;;;;;2.63;93.10;100928.78;5091527;28;20219;-69
2021/05/01 00:53:01;;;;;;;26.33;14.73;;;;;;;2.66;93.42;100926.97;5091414;28;20170;-70
2021/05/01 00:55:26;;;;;;;35.43;16.80;;;;;;;2.62;94.59;100924.41;5091527;28;20245;-71
2021/05/01 00:57:51;;;;;;;20.53;14.50;;;;;;;2.49;92.58;100927.25;5092777;28;20194;-70
2021/05/01 01:00:44;;;;;;;19.07;14.17;;;;;;;2.35;92.58;100926.66;5091490;28;20169;-70
2021/05/01 01:03:10;;;;;;;19.40;13.63;;;;;;;2.20;92.74;100927.75;5091991;28;20566;-70
2021/05/01 01:05:35;;;;;;;26.90;16.47;;;;;;;2.25;93.36;100922.44;5091474;28;20172;-70
2021/05/01 01:08:00;;;;;;;24.23;14.97;;;;;;;2.22;93.05;100934.78;5091216;28;20265;-70
2021/05/01 01:10:26;;;;;;;19.77;13.80;;;;;;;2.09;92.07;100937.63;5091183;28;20208;-69
2021/05/01 01:12:51;;;;;;;22.27;14.23;;;;;;;2.09;92.44;100940.25;5091385;28;20171;-69
2021/05/01 01:15:26;;;;;;;26.57;15.30;;;;;;;2.29;93.82;100936.44;5092462;28;20172;-70
2021/05/01 01:17:52;;;;;;;24.60;14.47;;;;;;;2.44;93.59;100941.41;5090992;28;20706;-70
2021/05/01 01:20:17;;;;;;;27.80;15.43;;;;;;;2.61;93.59;100942.00;5091720;28;20178;-71
2021/05/01 01:22:42;;;;;;;22.23;15.50;;;;;;;2.73;93.27;100939.13;5092005;28;20201;-70
2021/05/01 01:25:08;;;;;;;23.83;14.33;;;;;;;2.84;92.66;100944.16;5093065;28;20507;-70
2021/05/01 01:27:34;;;;;;;19.33;14.60;;;;;;;2.91;91.63;100950.19;5091075;28;20280;-70
2021/05/01 01:29:59;;;;;;;21.53;13.43;;;;;;;2.96;91.33;100950.97;5093278;28;20694;-69
2021/05/01 01:32:24;;;;;;;21.37;14.33;;;;;;;2.83;91.72;100958.25;5096143;28;20630;-70
2021/05/01 01:34:50;;;;;;;25.03;14.73;;;;;;;2.83;92.50;100952.97;5096625;28;20266;-70
2021/05/01 01:37:15;;;;;;;25.60;14.50;;;;;;;2.87;92.39;100943.25;5095071;28;20223;-70
2021/05/01 01:39:40;;;;;;;28.57;15.03;;;;;;;2.86;92.76;100939.75;5094689;28;20240;-70
2021/05/01 01:42:06;;;;;;;29.47;17.20;;;;;;;2.88;93.46;100940.56;5095937;28;20232;-70
2021/05/01 01:44:31;;;;;;;23.93;15.47;;;;;;;2.98;93.65;100933.38;5096700;28;20177;-70
2021/05/01 01:46:56;;;;;;;26.80;14.97;;;;;;;3.03;93.42;100939.41;5096158;28;20701;-70
2021/05/01 01:49:22;;;;;;;28.50;15.53;;;;;;;3.03;94.05;100942.06;5095511;28;20689;-70
2021/05/01 01:51:47;;;;;;;29.03;15.43;;;;;;;3.05;93.48;100937.63;5094706;28;20181;-70
2021/05/01 01:54:12;;;;;;;51.37;15.07;;;;;;;3.04;93.13;100941.16;5094385;28;20174;-70
2021/05/01 01:56:38;;;;;;;22.17;14.97;;;;;;;3.02;92.95;100935.91;5094447;28;20178;-70
2021/05/01 01:59:07;;;;;;;23.13;14.20;;;;;;;2.98;93.02;100943.91;5094570;28;20195;-70
2021/05/01 02:01:35;;;;;;;40.43;15.47;;;;;;;2.87;93.66;100940.59;5094549;28;20173;-70
2021/05/01 02:04:01;;;;;;;30.97;15.63;;;;;;;2.93;93.34;100935.22;5095512;28;20202;-71
2021/05/01 02:06:26;;;;;;;28.47;14.53;;;;;;;2.92;94.41;100929.06;5077304;28;20177;-70
2021/05/01 02:08:52;;;;;;;24.60;14.77;;;;;;;2.94;93.99;100936.94;5095411;28;20531;-70
2021/05/01 02:11:17;;;;;;;22.43;14.20;;;;;;;2.89;93.78;100928.25;5095524;28;20174;-70
2021/05/01 02:13:42;;;;;;;24.47;15.17;;;;;;;2.86;93.83;100923.06;5095533;28;20253;-70
2021/05/01 02:16:08;;;;;;;29.13;15.17;;;;;;;2.87;93.72;100914.25;5095159;28;20263;-70
2021/05/01 02:18:33;;;;;;;23.93;15.40;;;;;;;2.85;94.45;100918.69;5095093;28;20220;-70
2021/05/01 02:20:59;;;;;;;25.23;15.70;;;;;;;2.86;94.62;100909.88;5094019;28;20182;-70
2021/05/01 02:23:25;;;;;;;29.33;15.80;;;;;;;2.83;94.21;100919.56;5095107;28;20193;-70
2021/05/01 02:25:50;;;;;;;23.87;13.50;;;;;;;2.74;95.03;100911.00;5094001;28;20239;-70
2021/05/01 02:28:18;;;;;;;74.07;16.23;;;;;;;2.60;95.73;100908.63;5093486;28;20694;-70
2021/05/01 02:30:43;;;;;;;28.37;14.53;;;;;;;2.67;95.61;100917.28;5093968;28;20201;-70
2021/05/01 02:33:08;;;;;;;30.07;13.17;;;;;;;2.66;95.71;100916.41;5093700;28;20197;-70
2021/05/01 02:35:35;;;;;;;47.20;13.97;;;;;;;2.69;95.62;100919.00;5094790;28;20179;-70
2021/05/01 02:38:01;;;;;;;17.47;12.90;;;;;;;2.65;95.92;100930.50;5094814;28;20577;-69
2021/05/01 02:40:31;;;;;;;33.03;14.33;;;;;;;2.71;96.00;100922.47;5093459;28;20174;-70
2021/05/01 02:42:56;;;;;;;22.97;13.77;;;;;;;2.73;95.63;100915.41;5092329;28;20222;-70
2021/05/01 02:45:22;;;;;;;34.43;14.67;;;;;;;2.67;95.64;100912.00;5093321;28;20257;-70
2021/05/01 02:47:47;;;;;;;16.27;12.33;;;;;;;2.71;95.68;100911.06;5094569;28;20273;-70
2021/05/01 02:50:14;;;;;;;47.57;13.97;;;;;;;2.72;96.00;100903.13;5093424;28;20261;-70
2021/05/01 02:52:39;;;;;;;24.30;13.17;;;;;;;2.76;95.87;100912.69;5094926;28;20181;-70
2021/05/01 02:55:05;;;;;;;15.23;11.83;;;;;;;2.69;95.56;100905.81;5093517;28;20167;-70
2021/05/01 02:57:31;;;;;;;54.47;13.70;;;;;;;2.63;95.87;100911.22;5094490;28;20241;-69
2021/05/01 03:00:02;;;;;;;15.97;11.73;;;;;;;2.63;95.92;100911.22;5093140;28;20177;-69
2021/05/01 03:02:27;;;;;;;91.50;14.10;;;;;;;2.53;95.68;100909.63;5093949;28;20197;-70
2021/05/01 03:04:52;;;;;;;63.50;13.80;;;;;;;2.45;96.35;100898.38;5093195;28;20174;-70
2021/05/01 03:07:18;;;;;;;37.77;13.20;;;;;;;2.54;96.60;100900.81;5093088;28;20208;-70
2021/05/01 03:09:43;;;;;;;66.63;14.27;;;;;;;2.41;96.32;100900.19;5094442;28;20205;-70
2021/05/01 03:12:08;;;;;;;54.30;13.83;;;;;;;2.31;97.52;100903.03;5092849;28;20174;-70
2021/05/01 03:14:34;;;;;;;69.70;15.93;;;;;;;2.28;98.53;100898.69;5094112;28;20585;-71
2021/05/01 03:16:59;;;;;;;32.83;15.23;;;;;;;2.37;98.35;100897.63;5092942;28;20207;-71
2021/05/01 03:19:24;;;;;;;25.73;14.43;;;;;;;2.42;98.90;100901.91;5093202;28;20178;-70
2021/05/01 03:21:49;;;;;;;54.50;15.37;;;;;;;2.40;98.48;100905.50;5092773;28;20181;-70
2021/05/01 03:24:15;;;;;;;18.10;13.47;;;;;;;2.50;98.44;100909.69;5092646;28;20656;-70
2021/05/01 03:26:40;;;;;;;30.73;13.07;;;;;;;2.43;97.66;100902.78;5092446;28;20239;-70
2021/05/01 03:29:06;;;;;;;35.87;15.03;;;;;;;2.44;97.31;100909.78;5092813;28;20542;-71
2021/05/01 03:31:32;;;;;;;52.23;16.77;;;;;;;2.43;97.67;100902.78;5092599;28;20177;-70
2021/05/01 03:33:57;;;;;;;28.93;15.80;;;;;;;2.41;96.89;100900.19;5093969;28;20648;-70
2021/05/01 03:36:23;;;;;;;24.20;16.13;;;;;;;2.44;96.29;100899.25;5093862;28;20177;-70
2021/05/01 03:38:48;;;;;;;85.63;18.33;;;;;;;2.35;96.99;100900.31;5094029;28;20212;-71
2021/05/01 03:41:13;;;;;;;22.50;14.47;;;;;;;2.45;96.45;100901.00;5092751;28;20179;-70
2021/05/01 03:43:39;;;;;;;18.93;13.70;;;;;;;2.48;96.15;100899.16;5093713;28;20224;-70
2021/05/01 03:46:04;;;;;;;53.53;16.33;;;;;;;2.40;95.12;100900.22;5092223;28;20174;-70
2021/05/01 03:48:29;;;;;;;17.77;13.67;;;;;;;2.48;95.53;100893.91;5093641;28;20209;-70
2021/05/01 03:50:55;;;;;;;23.47;14.53;;;;;;;2.62;95.45;100891.03;5092285;28;20202;-70
2021/05/01 03:53:21;;;;;;;33.07;15.77;;;;;;;2.55;95.21;100883.25;5074931;28;20170;-70
2021/05/01 03:55:46;;;;;;;28.67;15.00;;;;;;;2.65;95.25;100884.81;5092218;28;20169;-70
2021/05/01 03:58:12;;;;;;;20.97;13.77;;;;;;;2.79;94.55;100893.31;5092016;28;20258;-70
2021/05/01 04:00:37;;;;;;;22.70;13.90;;;;;;;2.78;94.80;100894.22;5093368;28;20544;-70
2021/05/01 04:03:02;;;;;;;22.33;14.43;;;;;;;2.81;94.72;100896.78;5091970;28;20201;-70
2021/05/01 04:05:28;;;;;;;22.53;13.57;;;;;;;2.73;94.45;100896.06;5092012;28;20205;-70
2021/05/01 04:07:53;;;;;;;21.90;13.43;;;;;;;2.71;94.52;100893.47;5092624;28;20211;-70
2021/05/01 04:10:18;;;;;;;17.90;12.07;;;;;;;2.76;94.82;100894.25;5092053;28;20657;-70
2021/05/01 04:12:44;;;;;;;20.20;13.17;;;;;;;2.81;93.75;100894.16;5093351;28;20641;-71
2021/05/01 04:15:09;;;;;;;60.77;11.60;;;;;;;2.52;92.67;100889.44;5093228;28;20170;-71
2021/05/01 04:17:35;;;;;;;13.27;9.67;;;;;;;2.69;92.72;100889.13;5092059;28;20254;-71
2021/05/01 04:20:00;;;;;;;10.67;8.80;;;;;;;2.81;91.54;100889.75;5092309;28;20180;-71
2021/05/01 04:22:25;;;;;;;28.50;9.83;;;;;;;2.74;90.38;100887.28;5093390;28;20229;-71
2021/05/01 04:24:51;;;;;;;11.33;9.67;;;;;;;2.74;91.30;100889.91;5093657;28;20178;-71
2021/05/01 04:27:17;;;;;;;14.90;9.03;;;;;;;2.83;90.13;100882.66;5075220;28;20534;-71
2021/05/01 04:29:43;;;;;;;15.83;10.30;;;;;;;2.60;92.25;100878.75;5093774;28;20174;-71
2021/05/01 04:32:08;;;;;;;13.83;9.40;;;;;;;2.71;91.44;100889.97;5092566;28;20573;-70
2021/05/01 04:34:33;;;;;;;13.33;9.97;;;;;;;2.84;91.88;100878.28;5092565;28;20588;-71
2021/05/01 04:36:59;;;;;;;11.80;8.70;;;;;;;2.99;90.99;100885.88;5092841;28;20206;-71
2021/05/01 04:39:25;;;;;;;15.00;10.47;;;;;;;3.09;90.26;100876.00;5093559;28;20261;-71
2021/05/01 04:41:51;;;;;;;15.03;11.10;;;;;;;3.20;91.15;100878.38;5091809;28;20202;-70
2021/05/01 04:44:16;;;;;;;13.17;9.73;;;;;;;3.28;91.27;100866.75;5092922;28;20247;-70
2021/05/01 04:46:41;;;;;;;18.47;12.80;;;;;;;3.37;91.53;100881.53;5092873;28;20203;-70
2021/05/01 04:49:07;;;;;;;17.23;12.53;;;;;;;3.48;90.56;100881.28;5091614;28;20229;-72
2021/05/01 04:51:36;;;;;;;21.60;13.50;;;;;;;3.42;91.30;100877.03;5091812;28;20166;-70
2021/05/01 04:54:03;;;;;;;20.90;13.37;;;;;;;3.37;90.30;100877.13;5092308;28;20171;-72
2021/05/01 04:56:28;;;;;;;16.93;12.57;;;;;;;3.34;90.69;100879.81;5091710;28;20201;-70
2021/05/01 04:58:53;;;;;;;18.43;13.37;;;;;;;3.27;91.92;100877.34;5091832;28;20186;-71
2021/05/01 05:01:18;;;;;;;22.43;14.67;;;;;;;3.11;92.44;100874.19;5092946;28;20166;-71
2021/05/01 05:03:44;;;;;;;25.13;14.83;;;;;;;3.07;93.18;100875.16;5092898;28;20284;-71
2021/05/01 05:06:09;;;;;;;19.27;12.63;;;;;;;3.25;93.10;100877.38;5077346;28;20166;-71
2021/05/01 05:08:34;;;;;;;18.63;11.53;;;;;;;3.47;91.87;100882.19;5095543;28;20190;-71
2021/05/01 05:11:00;;;;;;;17.33;12.77;;;;;;;3.57;91.07;100886.34;5095602;28;20177;-70
2021/05/01 05:13:25;;;;;;;17.40;12.40;;;;;;;3.78;90.12;100884.97;5096000;28;20178;-70
2021/05/01 05:15:51;;;;;;;16.13;11.50;;;;;;;3.92;89.75;100888.16;5095614;28;20186;-71
2021/05/01 05:18:17;;;;;;;16.00;11.90;;;;;;;3.96;89.34;100889.81;5095465;28;20200;-70
2021/05/01 05:20:42;;;;;;;15.60;10.70;;;;;;;4.05;88.96;100898.34;5096493;28;20231;-70
2021/05/01 05:23:07;;;;;;;15.37;11.90;;;;;;;4.15;88.33;100896.38;5095195;28;20190;-70
2021/05/01 05:25:32;;;;;;;13.83;11.03;;;;;;;4.20;87.97;100896.25;5095271;28;20162;-71
2021/05/01 05:27:58;;;;;;;13.33;10.30;;;;;;;4.32;87.00;100891.50;5096246;28;20200;-70
2021/05/01 05:30:23;;;;;;;19.70;10.97;;;;;;;4.22;87.28;100897.94;5095258;28;20262;-70
2021/05/01 05:32:48;;;;;;;17.40;11.57;;;;;;;4.27;87.33;100896.03;5094944;28;20166;-70
2021/05/01 05:35:14;;;;;;;21.27;12.27;;;;;;;4.23;88.33;100889.09;5096659;28;20192;-70
2021/05/01 05:37:39;;;;;;;16.83;11.20;;;;;;;4.38;88.73;100893.13;5096101;28;20190;-70
2021/05/01 05:40:05;;;;;;;15.93;11.40;;;;;;;4.39;87.85;100895.72;5096338;28;20173;-70
2021/05/01 05:42:31;;;;;;;18.20;11.97;;;;;;;4.62;86.34;100896.88;5096071;28;20204;-70
2021/05/01 05:44:56;;;;;;;17.77;11.27;;;;;;;4.55;87.12;100895.31;5094802;28;20174;-70
2021/05/01 05:47:22;;;;;;;13.57;11.13;;;;;;;4.78;87.01;100886.75;5094597;28;20198;-70
2021/05/01 05:49:47;;;;;;;15.90;11.40;;;;;;;4.79;85.69;100891.97;5094695;28;20158;-69
2021/05/01 05:52:12;;;;;;;17.10;11.53;;;;;;;5.04;85.18;100886.88;5077457;28;20174;-69
2021/05/01 05:54:38;;;;;;;14.53;10.90;;;;;;;4.82;86.81;100888.38;5094372;28;20175;-70
2021/05/01 05:57:07;;;;;;;17.80;10.87;;;;;;;4.88;86.78;100894.38;5094449;28;20173;-70
2021/05/01 05:59:32;;;;;;;18.97;11.03;;;;;;;5.23;84.73;100893.38;5094634;28;20176;-70
2021/05/01 06:01:58;;;;;;;17.57;12.60;;;;;;;5.13;85.09;100891.00;5094237;28;20166;-70
2021/05/01 06:04:36;;;;;;;17.20;12.20;;;;;;;5.07;84.68;100884.13;5094273;28;20174;-70
2021/05/01 06:07:11;;;;;;;18.83;11.70;;;;;;;5.45;82.84;100885.63;5077285;28;20240;-71
2021/05/01 06:09:38;;;;;;;18.87;12.17;;;;;;;5.59;83.01;100888.72;5094741;28;20170;-70
2021/05/01 06:12:04;;;;;;;18.37;12.10;;;;;;;6.01;81.20;100884.75;5094090;28;20206;-70
2021/05/01 06:14:29;;;;;;;19.40;12.60;;;;;;;6.08;80.56;100886.28;5094008;28;20243;-71
2021/05/01 06:16:55;;;;;;;20.50;13.37;;;;;;;6.04;81.19;100887.31;5093936;28;20172;-69
2021/05/01 06:19:21;;;;;;;18.03;13.10;;;;;;;6.24;80.55;100882.19;5093850;28;20191;-70
2021/05/01 06:21:46;;;;;;;24.23;13.77;;;;;;;5.59;81.55;100886.06;5094196;28;20239;-69
2021/05/01 06:24:12;;;;;;;20.33;14.00;;;;;;;5.87;81.48;100888.69;5095320;28;20197;-70
2021/05/01 06:26:38;;;;;;;24.27;14.83;;;;;;;5.89;82.68;100884.22;5093958;28;20570;-71
2021/05/01 06:29:05;;;;;;;22.33;14.07;;;;;;;5.94;81.35;100895.53;5095072;28;20227;-70
2021/05/01 06:31:34;;;;;;;24.23;13.63;;;;;;;5.99;80.47;100889.25;5095060;28;20187;-70
2021/05/01 06:33:59;;;;;;;20.33;14.27;;;;;;;6.03;80.84;100889.09;5093712;28;20187;-69
2021/05/01 06:36:25;;;;;;;23.70;14.43;;;;;;;5.91;81.42;100885.03;5094076;28;20172;-70
2021/05/01 06:38:53;;;;;;;23.07;14.87;;;;;;;5.89;81.14;100883.31;5093722;28;20196;-70
2021/05/01 06:41:18;;;;;;;19.93;14.30;;;;;;;5.94;81.91;100884.06;5095121;28;20637;-71
2021/05/01 06:44:06;;;;;;;21.60;13.57;;;;;;;6.68;77.79;100877.09;5094971;28;20197;-71
2021/05/01 06:46:35;;;;;;;20.97;14.17;;;;;;;6.52;78.45;100877.66;5093683;28;20169;-70
2021/05/01 06:49:03;;;;;;;19.93;13.20;;;;;;;6.55;79.58;100889.94;5094668;28;20208;-71
2021/05/01 06:51:29;;;;;;;22.27;14.50;;;;;;;6.41;80.66;100889.56;5094934;28;20173;-70
2021/05/01 06:53:57;;;;;;;18.73;12.93;;;;;;;6.74;78.75;100885.72;5093557;28;20172;-70
2021/05/01 06:56:22;;;;;;;20.03;14.03;;;;;;;6.94;78.06;100898.25;5093392;28;20227;-70
2021/05/01 06:58:48;;;;;;;19.10;13.10;;;;;;;6.81;77.94;100889.88;5093289;28;20195;-70
2021/05/01 07:01:14;;;;;;;18.10;12.97;;;;;;;6.99;77.72;100887.47;5093487;28;20170;-70
2021/05/01 07:03:45;;;;;;;19.33;12.53;;;;;;;7.42;75.70;100892.88;5093059;28;20201;-70
2021/05/01 07:06:17;;;;;;;18.70;12.43;;;;;;;7.32;76.03;100893.28;5094589;28;20190;-70
2021/05/01 07:08:42;;;;;;;18.43;13.57;;;;;;;7.20;77.22;100892.84;5076265;28;20611;-70
2021/05/01 07:11:09;;;;;;;17.07;12.37;;;;;;;7.36;76.63;100886.94;5093224;28;20177;-70
2021/05/01 07:13:34;;;;;;;20.23;11.93;;;;;;;8.06;73.09;100895.59;5076002;28;20235;-70
2021/05/01 07:16:03;;;;;;;14.80;10.73;;;;;;;7.98;73.52;100900.38;5094292;28;20173;-70
2021/05/01 07:18:32;;;;;;;15.13;11.53;;;;;;;7.96;73.60;100891.59;5093100;28;20269;-70
2021/05/01 07:21:01;;;;;;;15.83;11.27;;;;;;;7.96;73.60;100902.22;5092877;28;20220;-70
2021/05/01 07:23:26;;;;;;;15.63;10.37;;;;;;;7.38;74.77;100890.41;5092991;28;20244;-70
2021/05/01 07:25:52;;;;;;;14.33;9.83;;;;;;;7.22;74.67;100890.13;5092884;28;20198;-70
2021/05/01 07:28:21;;;;;;;15.43;10.13;;;;;;;7.65;73.18;100899.94;5092233;28;20280;-70
2021/05/01 07:30:48;;;;;;;13.73;9.47;;;;;;;7.99;71.83;100899.44;5092634;28;20178;-70
2021/05/01 07:33:27;;;;;;;13.03;9.60;;;;;;;8.23;71.02;100899.38;5076907;28;20181;-70
2021/05/01 07:35:55;;;;;;;15.97;9.67;;;;;;;8.59;69.84;100904.94;5094470;28;20189;-69
2021/05/01 07:38:21;;;;;;;13.83;8.97;;;;;;;7.59;73.25;100900.19;5092622;28;20198;-69
2021/05/01 07:40:47;;;;;;;12.73;8.90;;;;;;;8.07;71.19;100902.66;5075767;28;20177;-70
2021/05/01 07:43:16;;;;;;;11.73;8.63;;;;;;;8.36;69.54;100904.13;5092663;28;20194;-70
2021/05/01 07:45:42;;;;;;;12.17;8.67;;;;;;;8.47;69.26;100903.66;5092529;28;20181;-71
2021/05/01 07:48:13;;;;;;;11.67;8.87;;;;;;;8.12;71.08;100905.13;5093988;28;20209;-70
2021/05/01 07:50:39;;;;;;;12.87;8.57;;;;;;;8.31;70.45;100903.44;5095634;28;20177;-70
2021/05/01 07:53:05;;;;;;;10.97;8.07;;;;;;;8.28;70.31;100903.56;5093858;28;20171;-70
2021/05/01 07:55:30;;;;;;;11.97;8.20;;;;;;;8.38;70.81;100912.03;5093864;28;20178;-70
2021/05/01 07:57:55;;;;;;;12.20;8.43;;;;;;;8.24;70.63;100909.94;5094480;28;20205;-70
2021/05/01 08:00:21;;;;;;;12.83;9.20;;;;;;;7.53;73.31;100905.75;5094338;28;20174;-70
2021/05/01 08:02:47;;;;;;;13.57;10.23;;;;;;;6.99;76.44;100904.25;5092897;28;20237;-70
2021/05/01 08:05:13;;;;;;;12.83;10.37;;;;;;;7.06;76.59;100894.25;5092613;28;20257;-71
2021/05/01 08:07:39;;;;;;;14.40;9.53;;;;;;;6.97;77.67;100898.13;5092723;28;20194;-70
2021/05/01 08:10:06;;;;;;;12.00;9.47;;;;;;;6.94;76.39;100895.59;5075271;28;20273;-70
2021/05/01 08:12:31;;;;;;;11.77;9.40;;;;;;;7.27;74.67;100892.59;5075443;28;20178;-70
2021/05/01 08:14:56;;;;;;;12.07;8.90;;;;;;;7.46;74.49;100894.50;5092280;28;20188;-70
2021/05/01 08:17:22;;;;;;;12.23;9.60;;;;;;;7.57;74.82;100901.19;5093651;28;20268;-71
2021/05/01 08:19:47;;;;;;;11.57;8.77;;;;;;;7.86;73.77;100898.22;5093747;28;20178;-70
2021/05/01 08:22:12;;;;;;;11.87;9.20;;;;;;;7.56;75.92;100891.47;5092056;28;20182;-71
2021/05/01 08:24:38;;;;;;;13.13;8.93;;;;;;;7.87;74.20;100897.31;5092719;28;20251;-71
2021/05/01 08:27:03;;;;;;;13.30;9.37;;;;;;;7.16;76.39;100895.69;5092141;28;20189;-71
2021/05/01 08:29:28;;;;;;;14.40;9.47;;;;;;;7.27;76.70;100897.91;5092426;28;20185;-71
2021/05/01 08:31:54;;;;;;;16.47;10.23;;;;;;;7.28;75.91;100894.34;5092303;28;20205;-70
2021/05/01 08:34:19;;;;;;;11.70;9.20;;;;;;;7.33;76.50;100895.00;5092124;28;20200;-70
2021/05/01 08:36:44;;;;;;;11.53;8.93;;;;;;;7.42;76.11;100900.84;5093075;28;20220;-71
2021/05/01 08:39:10;;;;;;;11.13;8.87;;;;;;;7.79;74.17;100905.56;5092022;28;20201;-71
2021/05/01 08:41:35;;;;;;;11.97;9.13;;;;;;;7.87;73.88;100907.06;5095351;28;20193;-71
2021/05/01 08:44:05;;;;;;;13.33;9.17;;;;;;;7.25;75.46;100897.97;5079002;28;20212;-71
2021/05/01 08:46:30;;;;;;;12.13;9.93;;;;;;;7.09;76.91;100892.41;5096146;28;20641;-71
2021/05/01 08:48:56;;;;;;;14.53;10.40;;;;;;;7.07;76.91;100888.94;5096280;28;20222;-71
2021/05/01 08:51:21;;;;;;;12.57;9.73;;;;;;;6.98;77.00;100891.03;5097555;28;20177;-70
2021/05/01 08:53:46;;;;;;;14.10;9.40;;;;;;;7.12;76.61;100889.63;5098198;28;20171;-70
2021/05/01 08:56:12;;;;;;;12.17;9.93;;;;;;;7.31;75.62;100889.78;5096085;28;20580;-70
2021/05/01 08:58:37;;;;;;;12.53;9.43;;;;;;;7.16;76.26;100885.91;5097578;28;20208;-70
2021/05/01 09:01:02;;;;;;;11.97;9.30;;;;;;;7.43;75.09;100883.09;5096152;28;20181;-70
2021/05/01 09:03:28;;;;;;;12.97;9.67;;;;;;;7.59;74.37;100888.69;5095839;28;20204;-70
2021/05/01 09:05:56;;;;;;;13.37;8.87;;;;;;;8.19;72.26;100888.00;5096935;28;20178;-70
2021/05/01 09:08:23;;;;;;;11.20;8.93;;;;;;;7.81;74.74;100879.81;5096370;28;20194;-71
2021/05/01 09:10:50;;;;;;;15.53;9.30;;;;;;;7.58;74.99;100884.31;5097617;28;20703;-71
2021/05/01 09:13:24;;;;;;;11.37;8.53;;;;;;;8.23;72.51;100886.06;5097388;28;20198;-70
2021/05/01 09:16:05;;;;;;;10.83;8.60;;;;;;;7.99;74.30;100882.63;5096128;28;20174;-71
2021/05/01 09:18:54;;;;;;;10.53;8.23;;;;;;;7.89;74.49;100882.16;5096485;28;20630;-71
2021/05/01 09:21:22;;;;;;;11.13;8.47;;;;;;;7.76;74.46;100889.75;5079907;28;20174;-72
2021/05/01 09:23:47;;;;;;;9.47;8.13;;;;;;;8.53;72.56;100883.91;5096189;28;20244;-71
2021/05/01 09:26:13;;;;;;;9.87;8.37;;;;;;;8.34;71.50;100879.38;5097000;28;20596;-69
2021/05/01 09:28:41;;;;;;;10.50;7.80;;;;;;;8.44;71.47;100880.72;5095607;28;20270;-70
2021/05/01 09:31:08;;;;;;;12.73;8.37;;;;;;;8.55;70.17;100861.66;5095666;28;20178;-70
2021/05/01 09:33:35;;;;;;;11.43;8.37;;;;;;;8.66;69.79;100870.00;5079389;28;20178;-71
2021/05/01 09:36:07;;;;;;;10.20;7.97;;;;;;;8.68;69.65;100859.31;5096144;28;20174;-70
2021/05/01 09:38:38;;;;;;;9.97;7.87;;;;;;;8.45;70.91;100871.81;5096145;28;20194;-70
2021/05/01 09:41:36;;;;;;;10.43;7.40;;;;;;;8.82;69.19;100864.84;5096860;28;20162;-70
2021/05/01 09:44:08;;;;;;;10.33;7.97;;;;;;;8.75;68.76;100853.63;5095440;28;20226;-70
2021/05/01 09:46:36;;;;;;;10.53;7.87;;;;;;;8.93;68.54;100856.41;5097124;28;20580;-71
2021/05/01 09:49:16;;;;;;;8.93;6.97;;;;;;;8.76;69.76;100863.34;5097860;28;20205;-70
2021/05/01 09:52:01;;;;;;;11.63;8.27;;;;;;;8.64;70.13;100869.22;5096291;28;20599;-71
2021/05/01 09:54:32;;;;;;;9.17;7.47;;;;;;;8.71;69.87;100865.34;5096435;28;20213;-71
2021/05/01 09:57:06;;;;;;;10.40;7.87;;;;;;;8.82;68.94;100864.84;5078451;28;20174;-70
2021/05/01 09:59:42;;;;;;;9.47;7.67;;;;;;;8.84;69.73;100849.69;5095764;28;20215;-73
2021/05/01 10:02:09;;;;;;;9.13;7.63;;;;;;;8.74;68.41;100851.03;5096553;28;20174;-71
2021/05/01 10:04:35;;;;;;;9.53;7.20;;;;;;;8.70;68.66;100849.44;5095491;28;20262;-72
2021/05/01 10:07:05;;;;;;;8.63;7.10;;;;;;;8.50;69.05;100852.13;5095241;28;20594;-70
2021/05/01 10:09:34;;;;;;;10.93;7.23;;;;;;;8.28;70.10;100855.69;5078476;28;20734;-70
2021/05/01 10:12:04;;;;;;;13.00;7.20;;;;;;;8.43;69.24;100848.88;5097030;28;20206;-70
2021/05/01 10:14:34;;;;;;;8.27;6.93;;;;;;;8.77;68.60;100841.13;5096112;28;20163;-72
2021/05/01 10:16:59;;;;;;;9.57;6.60;;;;;;;8.67;68.69;100841.59;5094696;28;20585;-70
2021/05/01 10:19:42;;;;;;;8.50;7.33;;;;;;;8.64;68.45;100847.94;5095252;28;20178;-72
2021/05/01 10:22:22;;;;;;;8.00;6.70;;;;;;;8.68;68.26;100848.66;5095351;28;20163;-71
2021/05/01 10:24:48;;;;;;;7.57;6.57;;;;;;;9.02;67.11;100848.84;5096454;28;20246;-71
2021/05/01 10:27:14;;;;;;;8.43;6.93;;;;;;;8.83;67.52;100849.75;5095498;28;20178;-71
2021/05/01 10:29:41;;;;;;;9.10;7.07;;;;;;;8.74;68.11;100838.59;5095124;28;20224;-71
2021/05/01 10:32:28;;;;;;;8.83;6.80;;;;;;;8.63;68.38;100848.00;5094981;28;20181;-71
2021/05/01 10:34:56;;;;;;;9.30;7.03;;;;;;;8.61;68.69;100842.75;5095253;28;20154;-71
2021/05/01 10:37:24;;;;;;;8.00;7.10;;;;;;;8.43;69.34;100841.75;5077543;28;20194;-71
2021/05/01 10:39:56;;;;;;;8.13;6.67;;;;;;;8.42;69.29;100848.00;5094665;28;20638;-71
2021/05/01 10:42:21;;;;;;;9.47;7.60;;;;;;;8.36;69.68;100840.28;5077716;28;20561;-72
2021/05/01 10:45:02;;;;;;;8.43;6.97;;;;;;;8.42;69.80;100842.69;5095009;28;20174;-71
2021/05/01 10:47:28;;;;;;;8.53;6.57;;;;;;;8.60;69.64;100842.81;5096803;28;20194;-71
2021/05/01 10:49:57;;;;;;;8.67;7.00;;;;;;;8.80;68.56;100840.13;5096082;28;20645;-72
2021/05/01 10:52:23;;;;;;;8.77;7.80;;;;;;;8.81;69.24;100835.66;5095954;28;20188;-70
2021/05/01 10:54:59;;;;;;;8.47;7.00;;;;;;;8.97;69.51;100832.22;5095428;28;20257;-70
2021/05/01 10:57:25;;;;;;;9.30;7.13;;;;;;;9.29;69.22;100832.50;5094119;28;20213;-70
2021/05/01 11:00:02;;;;;;;9.90;8.27;;;;;;;9.42;69.03;100828.34;5094702;28;20210;-70
2021/05/01 11:02:34;;;;;;;11.43;7.53;;;;;;;9.67;69.10;100836.88;5094862;28;20190;-71
2021/05/01 11:05:01;;;;;;;9.73;7.80;;;;;;;9.60;68.70;100845.22;5095933;28;20613;-71
2021/05/01 11:07:41;;;;;;;10.10;7.30;;;;;;;9.33;69.60;100842.09;5095275;28;20198;-70
2021/05/01 11:10:07;;;;;;;9.23;7.27;;;;;;;9.20;70.44;100844.47;5093842;28;20320;-70
2021/05/01 11:12:38;;;;;;;9.17;7.33;;;;;;;9.18;69.41;100840.13;5095692;28;20185;-71
2021/05/01 11:15:09;;;;;;;9.30;7.60;;;;;;;9.40;68.81;100851.53;5094327;28;20561;-71
2021/05/01 11:17:37;;;;;;;10.13;7.57;;;;;;;9.48;69.14;100849.34;5094031;28;20198;-71
2021/05/01 11:20:13;;;;;;;9.73;6.80;;;;;;;9.30;69.45;100839.59;5093835;28;20178;-71
2021/05/01 11:22:40;;;;;;;7.87;6.93;;;;;;;9.04;68.93;100852.31;5093866;28;20213;-70